Historyczne dane pomiarowe

Dodano dane terminowe – wersja testowa.

Dane z okresu 1951-2019

Wersja bazy: 1.34 [2019-03-16, lista zmian], aktualizacja planowana na 2019-04-15

Dane meteo z obszaru Polski uzyskane na podstawie danych udostępnionych przez Instytut Meteorologii i Gospodarki Wodnej – Państwowy Instytut Badawczy.

 

Wybierz Datę:    

       

TemperaturaWilgotnośćWiatrCiśnienieOpadyŚniegCzas trwania zjawisk
 Stacja t tx tn tng RH VA  wxwx mslp ppp RRR   cm mm wxwxwxwxwxwxwx
1999-08-14 13.6 20.0 7.5- 66.8- 4.7 2.7---- 1.0------------
1999-08-13 12.0 15.0 10.0- 84.5- 6.0 1.3---- 0.0------------
1999-08-12 11.8 14.5 9.0- 79.0- 8.0 1.7---- 0.0------------
1999-08-11 15.2 19.0 13.0- 87.8- 7.3 0.0---- 3.4------------
1999-08-10 18.9 22.0 15.4- 73.0- 8.0 1.3---- 4.9------------
1999-08-09 19.6 24.0 14.9- 78.8- 6.7 1.7---- 0.1------------
1999-08-08 20.4 27.0 14.0- 71.8- 3.3 1.7---- 1.1------------
1999-08-07 20.0 26.5 14.5- 82.0- 7.3 0.0---- 0.0------------
1999-08-06 19.5 24.0 14.0- 78.8- 6.0 1.0---- 0.0------------
1999-08-05 18.7 24.0 14.5- 60.3- 5.3 1.3---- 0.0------------
1999-08-04 17.4 24.0 11.5- 64.0- 6.0 1.3---- 0.0------------
1999-08-03 17.3 22.5 11.5- 61.0- 4.3 1.3---- 0.0------------
1999-08-02 17.4 22.5 12.0- 63.5- 6.0 3.0---- 0.0------------
1999-08-01 17.2 23.0 11.5- 64.8- 5.3 1.3---- 0.0------------
1999-07-31 17.2 22.0 11.0- 67.0- 4.0 1.7---- 0.0------------
1999-07-30 16.6 22.0 10.5- 68.8- 4.0 0.0---- 0.0------------
1999-07-29 16.1 21.0 10.5- 73.5- 5.3 1.0---- 0.0------------
1999-07-28 16.1 20.5 10.0- 70.8- 2.3 2.7---- 0.0------------
1999-07-27 16.6 21.5 13.5- 81.3- 8.0 1.0---- 0.4------------
1999-07-26 18.8 24.5 13.0- 75.5- 3.7 2.0---- 0.0------------
1999-07-25 17.7 24.5 10.5- 76.3- 5.3 1.3---- 0.0------------
1999-07-24 13.7 16.5 11.0- 79.5- 7.3 0.0---- 0.0------------
1999-07-23 12.9 16.5 10.5- 81.5- 8.0 1.0---- 3.2------------
1999-07-22 16.0 21.0 12.0- 64.3- 6.3 1.3---- 0.0------------
1999-07-21 20.3 24.5 15.9- 68.3- 6.3 3.0---- 1.8------------
1999-07-20 22.6 28.0 18.4- 57.3- 2.7 1.3---- 0.0------------
1999-07-19 21.1 27.0 14.0- 65.0- 4.7 1.3---- 0.0------------
1999-07-18 19.1 25.0 12.5- 70.0- 4.3 1.3---- 0.0------------
1999-07-17 16.3 21.5 9.5- 74.8- 4.3 0.0---- 0.0------------
1999-07-16 14.5 18.5 9.0- 77.8- 6.3 0.0---- 0.2------------
1999-07-15 13.5 16.5 11.0- 85.0- 7.7 0.0---- 0.0------------
1999-07-14 18.2 22.0 15.4- 83.8- 6.0 1.3---- 6.6------------
1999-07-13 20.2 22.0 17.4- 79.8- 5.7 3.0---- 6.1------------
1999-07-12 19.2 24.0 14.9- 90.5- 7.0 0.0---- 17.3------------
1999-07-11 17.5 19.5 14.9- 80.8- 7.3 4.7---- 0.6------------
1999-07-10 18.0 21.0 15.4- 87.5- 7.3 4.7---- 0.0------------
1999-07-09 14.7 15.5 12.9- 90.0- 8.0 0.0---- 10.5------------
1999-07-08 13.3 14.5 12.9- 91.0- 8.0 0.0---- 15.2------------
1999-07-07 16.1 19.0 14.0- 89.5- 7.7 0.0---- 7.8------------
1999-07-06 21.3 26.0 18.4- 82.0- 7.7 1.3---- 16.1------------
1999-07-05 24.4 28.0 19.9- 55.0- 4.0 12.7---- 0.0------------
1999-07-04 23.6 29.0 19.9- 65.0- 4.3 0.0---- 0.0------------
1999-07-03 19.5 26.0 11.5- 69.8- 2.7 2.0---- 0.0------------
1999-07-02 16.6 19.5 13.0- 86.5- 7.3 0.0---- 1.1------------
1999-07-01 17.1 20.0 12.5- 86.3- 7.3 0.0---- 7.0------------
1999-06-30 18.2 23.0 12.0- 75.8- 6.0 2.7---- 0.0------------
1999-06-29 15.9 20.0 9.5- 65.5- 4.0 1.3---- 0.0------------
1999-06-28 17.8 23.0 13.0- 73.8- 6.0 2.3---- 0.0------------
1999-06-27 17.5 20.5 15.4- 79.5- 8.0 1.0---- 0.4------------
1999-06-26 15.0 22.0 6.5- 65.8- 4.0 1.0---- 0.0------------
1999-06-25 10.8 15.0 6.0- 79.3- 6.7 1.0---- 0.9------------
1999-06-24 10.4 15.0 5.5- 81.3- 7.0 2.0---- 0.2------------
1999-06-23 10.5 14.0 7.9- 71.8- 6.7 4.7---- 0.0------------
1999-06-22 8.3 10.5 7.0- 91.8- 8.0 1.7---- 13.8------------
1999-06-21 13.2 18.0 10.0- 83.0- 8.0 1.3---- 14.8------------
1999-06-20 15.5 19.0 10.0- 79.8- 4.7 1.3---- 0.0------------
1999-06-19 12.8 16.0 10.5- 89.3- 7.7 0.0---- 0.0------------
1999-06-18 13.1 17.5 11.0- 91.5- 8.0 1.3---- 23.8------------
1999-06-17 16.2 19.0 13.5- 84.0- 8.0 0.0---- 0.0------------
1999-06-16 14.9 17.0 13.0- 87.5- 8.0 1.3---- 0.0------------
349.5 ms

 

Źródłem pochodzenia danych jest Instytut Meteorologii i Gospodarki Wodnej – Państwowy Instytut Badawczy. Dane Instytutu Meteorologii i Gospodarki Wodnej – Państwowego Instytutu Badawczego zostały przetworzone.

Dane źródłowe można odnaleźć na stronie https://dane.imgw.pl